createdAt,value
2018-11-01T00:00:13.192Z,11.60
2018-11-01T00:02:42.031Z,11.50
2018-11-01T00:05:10.816Z,11.50
2018-11-01T00:07:39.814Z,11.50
2018-11-01T00:10:08.767Z,11.50
2018-11-01T00:12:40.339Z,11.30
2018-11-01T00:15:10.311Z,11.20
2018-11-01T00:17:39.579Z,11.30
2018-11-01T00:20:10.860Z,11.40
2018-11-01T00:22:39.736Z,11.60
2018-11-01T00:25:10.248Z,11.60
2018-11-01T00:27:39.208Z,11.60
2018-11-01T00:30:08.495Z,11.50
2018-11-01T00:32:37.362Z,11.40
2018-11-01T00:35:06.481Z,11.20
2018-11-01T00:37:35.438Z,10.70
2018-11-01T00:40:05.700Z,10.60
2018-11-01T00:42:34.649Z,10.70
2018-11-01T00:45:03.592Z,10.80
2018-11-01T00:47:32.404Z,10.70
2018-11-01T00:50:01.294Z,10.70
2018-11-01T00:52:30.177Z,10.70
2018-11-01T00:54:59.031Z,10.70
2018-11-01T00:57:27.883Z,10.70
2018-11-01T00:59:56.719Z,10.80
2018-11-01T01:02:25.579Z,10.90
2018-11-01T01:04:54.375Z,10.90
2018-11-01T01:07:23.189Z,10.80
2018-11-01T01:09:52.095Z,10.70
2018-11-01T01:12:20.869Z,10.80
2018-11-01T01:14:49.668Z,10.80
2018-11-01T01:17:18.479Z,11.00
2018-11-01T01:19:47.335Z,11.10
2018-11-01T01:22:16.252Z,11.10
2018-11-01T01:24:45.024Z,11.10
2018-11-01T01:27:13.802Z,11.10
2018-11-01T01:29:42.597Z,11.10
2018-11-01T01:32:11.489Z,11.20
2018-11-01T01:34:40.454Z,11.20
2018-11-01T01:37:09.342Z,11.20
2018-11-01T01:39:38.303Z,11.20
2018-11-01T01:42:07.316Z,11.20
2018-11-01T01:44:36.097Z,11.20
2018-11-01T01:47:05.022Z,11.10
2018-11-01T01:49:33.951Z,10.90
2018-11-01T01:52:02.745Z,10.60
2018-11-01T01:54:31.633Z,10.50
2018-11-01T01:57:00.469Z,10.40
2018-11-01T01:59:29.288Z,10.40
2018-11-01T02:01:58.062Z,10.50
2018-11-01T02:04:26.954Z,10.50
2018-11-01T02:06:55.764Z,10.50
2018-11-01T02:09:24.721Z,10.70
2018-11-01T02:11:53.634Z,10.80
2018-11-01T02:14:22.416Z,10.80
2018-11-01T02:16:51.305Z,10.80
2018-11-01T02:19:20.107Z,10.80
2018-11-01T02:21:49.014Z,10.80
2018-11-01T02:24:17.860Z,10.80
2018-11-01T02:26:47.026Z,10.80
2018-11-01T02:29:15.883Z,10.90
2018-11-01T02:31:44.742Z,10.90
2018-11-01T02:34:13.564Z,10.90
2018-11-01T02:36:42.393Z,10.90
2018-11-01T02:39:12.484Z,11.00
2018-11-01T02:41:41.490Z,11.00
2018-11-01T02:44:10.841Z,11.00
2018-11-01T02:46:39.817Z,11.00
2018-11-01T02:49:09.622Z,11.10
2018-11-01T02:51:41.498Z,11.10
2018-11-01T02:54:10.328Z,11.20
2018-11-01T02:56:39.178Z,11.30
2018-11-01T02:59:07.991Z,11.30
2018-11-01T03:01:36.836Z,11.30
2018-11-01T03:04:05.838Z,11.30
2018-11-01T03:06:34.617Z,11.10
2018-11-01T03:09:03.778Z,11.00
2018-11-01T03:11:32.687Z,10.90
2018-11-01T03:14:01.608Z,10.90
2018-11-01T03:16:30.433Z,11.00
2018-11-01T03:18:59.454Z,11.10
2018-11-01T03:21:28.335Z,11.20
2018-11-01T03:23:57.080Z,11.10
2018-11-01T03:26:26.052Z,11.40
2018-11-01T03:28:54.930Z,11.40
2018-11-01T03:31:23.723Z,11.40
2018-11-01T03:33:52.709Z,11.40
2018-11-01T03:36:21.458Z,11.30
2018-11-01T03:38:50.360Z,11.30
2018-11-01T03:41:19.174Z,11.30
2018-11-01T03:43:48.037Z,11.30
2018-11-01T03:46:16.801Z,11.30
2018-11-01T03:48:45.601Z,11.30
2018-11-01T03:51:14.440Z,11.30
2018-11-01T03:53:43.337Z,11.30
2018-11-01T03:56:12.089Z,11.20
2018-11-01T03:58:41.155Z,11.20
2018-11-01T04:01:09.969Z,11.10
2018-11-01T04:03:38.758Z,11.10
2018-11-01T04:06:07.766Z,11.10
2018-11-01T04:08:36.601Z,11.20
2018-11-01T04:11:05.761Z,11.20
2018-11-01T04:13:34.687Z,11.20
2018-11-01T04:16:03.469Z,11.30
2018-11-01T04:18:32.296Z,11.30
2018-11-01T04:21:01.143Z,11.20
2018-11-01T04:23:30.151Z,11.00
2018-11-01T04:25:58.904Z,11.00
2018-11-01T04:28:27.925Z,11.00
2018-11-01T04:30:56.802Z,11.00
2018-11-01T04:33:25.725Z,10.90
2018-11-01T04:35:54.480Z,11.00
2018-11-01T04:38:23.437Z,11.00
2018-11-01T04:40:52.460Z,10.90
2018-11-01T04:43:21.466Z,10.90
2018-11-01T04:45:50.334Z,10.90
2018-11-01T04:48:19.163Z,11.00
2018-11-01T04:50:48.001Z,11.00
2018-11-01T04:53:16.780Z,10.80
2018-11-01T04:55:45.589Z,10.70
2018-11-01T04:58:14.455Z,10.80
2018-11-01T05:00:43.327Z,10.70
2018-11-01T05:03:12.146Z,10.70
2018-11-01T05:05:40.998Z,10.80
2018-11-01T05:08:09.838Z,10.80
2018-11-01T05:10:38.651Z,10.70
2018-11-01T05:13:07.587Z,10.70
2018-11-01T05:15:36.667Z,10.70
2018-11-01T05:18:05.616Z,10.80
2018-11-01T05:20:34.455Z,10.70
2018-11-01T05:23:03.303Z,10.70
2018-11-01T05:25:32.102Z,10.60
2018-11-01T05:28:01.023Z,10.60
2018-11-01T05:30:29.893Z,10.60
2018-11-01T05:32:58.832Z,10.60
2018-11-01T05:35:27.660Z,10.50
2018-11-01T05:37:56.596Z,10.30
2018-11-01T05:40:25.405Z,10.30
2018-11-01T05:42:54.329Z,10.30
2018-11-01T05:45:23.171Z,10.30
2018-11-01T05:47:51.968Z,10.20
2018-11-01T05:50:20.983Z,9.90
2018-11-01T05:52:49.866Z,9.80
2018-11-01T05:55:20.345Z,9.70
2018-11-01T05:57:49.239Z,9.60
2018-11-01T06:00:18.071Z,9.50
2018-11-01T06:02:49.289Z,9.50
2018-11-01T06:05:18.128Z,9.40
2018-11-01T06:07:53.436Z,9.30
2018-11-01T06:10:22.192Z,9.30
2018-11-01T06:12:51.103Z,9.30
2018-11-01T06:15:19.969Z,9.30
2018-11-01T06:17:49.077Z,9.10
2018-11-01T06:20:18.035Z,9.10
2018-11-01T06:22:46.883Z,9.10
2018-11-01T06:25:15.784Z,9.00
2018-11-01T06:27:44.684Z,8.90
2018-11-01T06:30:15.130Z,9.00
2018-11-01T06:32:44.958Z,9.10
2018-11-01T06:35:18.985Z,9.00
2018-11-01T06:37:47.966Z,8.90
2018-11-01T06:40:17.206Z,9.00
2018-11-01T06:42:47.181Z,9.10
2018-11-01T06:45:16.141Z,9.10
2018-11-01T06:47:45.138Z,9.00
2018-11-01T06:50:16.889Z,8.90
2018-11-01T06:52:45.885Z,9.10
2018-11-01T06:55:14.750Z,9.10
2018-11-01T06:57:45.300Z,8.90
2018-11-01T07:00:15.400Z,8.90
2018-11-01T07:02:44.422Z,8.80
2018-11-01T07:05:13.400Z,8.70
2018-11-01T07:07:42.259Z,8.70
2018-11-01T07:10:13.262Z,9.00
2018-11-01T07:12:42.144Z,9.40
2018-11-01T07:15:13.314Z,9.60
2018-11-01T07:17:43.124Z,10.10
2018-11-01T07:20:13.706Z,10.40
2018-11-01T07:22:43.195Z,10.60
2018-11-01T07:25:14.081Z,10.90
2018-11-01T07:27:43.039Z,11.00
2018-11-01T07:30:14.204Z,10.60
2018-11-01T07:32:43.169Z,10.90
2018-11-01T07:35:12.922Z,11.50
2018-11-01T07:37:43.704Z,11.60
2018-11-01T07:40:14.855Z,11.30
2018-11-01T07:42:43.640Z,11.30
2018-11-01T07:45:22.145Z,11.40
2018-11-01T07:47:51.357Z,11.60
2018-11-01T07:50:21.098Z,11.60
2018-11-01T07:52:50.193Z,11.70
2018-11-01T07:55:43.076Z,11.90
2018-11-01T07:58:12.685Z,12.00
2018-11-01T08:00:42.061Z,12.20
2018-11-01T08:03:17.145Z,12.40
2018-11-01T08:06:07.504Z,12.40
2018-11-01T08:08:48.735Z,12.20
2018-11-01T08:11:52.086Z,12.20
2018-11-01T08:14:21.957Z,12.10
2018-11-01T08:16:52.367Z,12.00
2018-11-01T08:19:52.479Z,11.50
2018-11-01T08:22:52.269Z,11.60
2018-11-01T08:25:21.737Z,11.50
2018-11-01T08:27:52.245Z,11.70
2018-11-01T08:30:27.515Z,11.60
2018-11-01T08:33:11.825Z,12.10
2018-11-01T08:36:11.052Z,12.10
2018-11-01T08:39:12.576Z,12.50
2018-11-01T08:42:16.840Z,12.60
2018-11-01T08:45:19.520Z,13.00
2018-11-01T08:48:24.980Z,13.10
2018-11-01T08:54:28.598Z,13.40
2018-11-01T08:57:32.736Z,13.80
2018-11-01T09:00:35.080Z,14.00
2018-11-01T09:03:36.099Z,14.30
2018-11-01T09:09:42.599Z,14.10
2018-11-01T09:12:43.842Z,13.90
2018-11-01T09:15:47.685Z,14.00
2018-11-01T09:18:53.253Z,14.40
2018-11-01T09:21:58.323Z,14.20
2018-11-01T09:28:03.498Z,13.90
2018-11-01T09:31:05.602Z,14.00
2018-11-01T09:34:09.010Z,13.80
2018-11-01T09:37:11.094Z,13.80
2018-11-01T09:43:16.801Z,13.80
2018-11-01T09:46:16.037Z,14.10
2018-11-01T09:49:18.541Z,14.30
2018-11-01T09:52:17.347Z,14.30
2018-11-01T09:57:50.896Z,14.20
2018-11-01T10:00:19.812Z,14.30
2018-11-01T10:02:48.783Z,14.50
2018-11-01T10:05:17.744Z,14.60
2018-11-01T10:07:46.676Z,14.80
2018-11-01T10:10:15.585Z,14.70
2018-11-01T10:12:44.469Z,14.80
2018-11-01T10:15:13.802Z,14.90
2018-11-01T10:17:43.014Z,15.00
2018-11-01T10:20:13.063Z,15.00
2018-11-01T10:22:42.440Z,14.90
2018-11-01T10:25:12.858Z,14.70
2018-11-01T10:27:41.855Z,14.70
2018-11-01T10:30:15.735Z,14.70
2018-11-01T10:32:45.197Z,14.70
2018-11-01T10:35:14.582Z,14.60
2018-11-01T10:37:43.506Z,14.70
2018-11-01T10:40:17.591Z,14.60
2018-11-01T10:42:46.528Z,14.70
2018-11-01T10:45:15.343Z,14.70
2018-11-01T10:47:44.329Z,14.80
2018-11-01T10:50:16.532Z,14.90
2018-11-01T10:52:45.409Z,15.00
2018-11-01T10:55:14.404Z,15.10
2018-11-01T10:57:43.399Z,15.00
2018-11-01T11:00:17.683Z,15.00
2018-11-01T11:02:47.417Z,15.00
2018-11-01T11:05:17.256Z,14.90
2018-11-01T11:07:46.444Z,15.10
2018-11-01T11:10:15.425Z,15.20
2018-11-01T11:12:44.361Z,15.30
2018-11-01T11:15:13.337Z,15.40
2018-11-01T11:17:42.245Z,15.30
2018-11-01T11:20:11.950Z,15.30
2018-11-01T11:22:40.687Z,15.20
2018-11-01T11:25:11.201Z,15.20
2018-11-01T11:27:40.538Z,15.10
2018-11-01T11:30:10.767Z,15.10
2018-11-01T11:32:39.670Z,15.10
2018-11-01T11:35:09.200Z,15.20
2018-11-01T11:37:37.980Z,15.00
2018-11-01T11:40:08.347Z,15.00
2018-11-01T11:42:37.310Z,14.90
2018-11-01T11:45:07.460Z,14.80
2018-11-01T11:47:36.348Z,14.70
2018-11-01T11:50:05.889Z,14.70
2018-11-01T11:52:34.735Z,14.70
2018-11-01T11:55:03.612Z,14.60
2018-11-01T11:57:32.466Z,14.70
2018-11-01T12:00:01.245Z,14.60
2018-11-01T12:02:30.184Z,14.50
2018-11-01T12:04:59.009Z,14.60
2018-11-01T12:07:27.782Z,14.60
2018-11-01T12:09:56.576Z,14.70
2018-11-01T12:12:25.390Z,14.70
2018-11-01T12:14:54.178Z,14.70
2018-11-01T12:17:23.103Z,14.60
2018-11-01T12:19:51.944Z,14.60
2018-11-01T12:22:20.944Z,14.60
2018-11-01T12:24:49.731Z,14.50
2018-11-01T12:27:18.631Z,14.40
2018-11-01T12:29:47.402Z,14.40
2018-11-01T12:32:16.130Z,14.40
2018-11-01T12:34:44.949Z,14.40
2018-11-01T12:37:13.760Z,14.40
2018-11-01T12:39:43.519Z,14.40
2018-11-01T12:42:12.280Z,14.40
2018-11-01T12:44:41.052Z,14.50
2018-11-01T12:47:09.915Z,14.30
2018-11-01T12:49:38.803Z,14.20
2018-11-01T12:52:07.679Z,14.20
2018-11-01T12:54:36.502Z,14.40
2018-11-01T12:57:05.502Z,14.40
2018-11-01T12:59:34.280Z,14.50
2018-11-01T13:02:03.097Z,14.60
2018-11-01T13:04:31.896Z,14.50
2018-11-01T13:34:38.380Z,13.80
2018-11-01T13:37:08.637Z,13.60
2018-11-01T13:39:38.790Z,13.40
2018-11-01T13:42:08.323Z,13.40
2018-11-01T13:44:37.837Z,13.30
2018-11-01T13:47:07.360Z,13.30
2018-11-01T13:49:36.412Z,13.40
2018-11-01T13:52:05.623Z,13.50
2018-11-01T13:54:34.926Z,13.60
2018-11-01T13:57:04.101Z,13.80
2018-11-01T13:59:33.337Z,13.70
2018-11-01T14:02:02.413Z,13.60
2018-11-01T14:04:31.602Z,13.50
2018-11-01T14:07:00.569Z,13.60
2018-11-01T14:09:30.884Z,13.50
2018-11-01T14:12:00.252Z,13.50
2018-11-01T14:14:29.811Z,13.60
2018-11-01T14:16:58.384Z,13.60
2018-11-01T14:19:27.454Z,13.50
2018-11-01T14:21:56.337Z,13.40
2018-11-01T14:24:25.360Z,13.30
2018-11-01T14:26:54.767Z,13.20
2018-11-01T14:29:24.214Z,13.10
2018-11-01T14:31:53.873Z,13.10
2018-11-01T14:34:23.201Z,13.10
2018-11-01T14:36:57.338Z,12.90
2018-11-01T14:39:32.850Z,12.70
2018-11-01T14:42:01.834Z,12.70
2018-11-01T14:44:31.545Z,12.80
2018-11-01T14:47:01.164Z,12.60
2018-11-01T14:49:30.706Z,12.60
2018-11-01T14:52:00.058Z,12.50
2018-11-01T14:54:29.977Z,12.40
2018-11-01T14:56:59.761Z,12.40
2018-11-01T14:59:29.357Z,12.30
2018-11-01T15:01:56.759Z,12.30
2018-11-01T15:04:26.071Z,12.30
2018-11-01T15:06:55.450Z,12.20
2018-11-01T15:09:24.912Z,12.00
2018-11-01T15:11:54.683Z,12.00
2018-11-01T15:14:25.063Z,11.90
2018-11-01T15:16:55.979Z,11.80
2018-11-01T15:19:25.472Z,11.80
2018-11-01T15:21:55.174Z,11.70
2018-11-01T15:24:24.606Z,11.70
2018-11-01T15:26:54.259Z,11.60
2018-11-01T15:29:23.938Z,11.50
2018-11-01T15:31:53.961Z,11.50
2018-11-01T15:34:25.361Z,11.50
2018-11-01T15:36:55.234Z,11.50
2018-11-01T15:39:27.868Z,11.50
2018-11-01T15:42:07.233Z,11.50
2018-11-01T15:44:41.064Z,11.40
2018-11-01T15:47:13.196Z,11.40
2018-11-01T15:49:49.830Z,11.40
2018-11-01T15:52:23.580Z,11.50
2018-11-01T15:54:53.130Z,11.40
2018-11-01T15:57:22.991Z,11.50
2018-11-01T15:59:53.393Z,11.40
2018-11-01T16:02:23.195Z,11.40
2018-11-01T16:04:52.543Z,11.30
2018-11-01T16:07:21.974Z,11.30
2018-11-01T16:09:51.151Z,11.30
2018-11-01T16:12:20.391Z,11.30
2018-11-01T16:14:49.860Z,11.20
2018-11-01T16:17:19.808Z,11.20
2018-11-01T16:19:50.443Z,11.20
2018-11-01T16:22:20.300Z,11.10
2018-11-01T16:24:50.039Z,11.10
2018-11-01T16:27:19.430Z,11.10
2018-11-01T16:29:48.508Z,11.10
2018-11-01T16:32:17.675Z,11.00
2018-11-01T16:34:46.791Z,11.00
2018-11-01T16:37:15.985Z,11.00
2018-11-01T16:39:45.021Z,11.00
2018-11-01T16:42:15.877Z,10.90
2018-11-01T16:44:45.565Z,10.90
2018-11-01T16:47:14.718Z,10.90
2018-11-01T16:49:44.091Z,10.90
2018-11-01T16:52:13.297Z,10.90
2018-11-01T16:54:42.421Z,10.90
2018-11-01T16:57:12.163Z,10.90
2018-11-01T16:59:41.662Z,11.00
2018-11-01T17:02:11.362Z,11.00
2018-11-01T17:04:41.727Z,11.00
2018-11-01T17:07:10.883Z,11.00
2018-11-01T17:09:40.718Z,11.00
2018-11-01T17:12:10.306Z,11.00
2018-11-01T17:14:40.010Z,10.90
2018-11-01T17:17:09.212Z,10.90
2018-11-01T17:22:13.174Z,11.00
2018-11-01T17:24:43.378Z,11.00
2018-11-01T17:27:12.624Z,11.00
2018-11-01T17:29:42.063Z,10.90
2018-11-01T17:32:11.309Z,11.00
2018-11-01T17:34:40.493Z,11.00
2018-11-01T17:37:11.632Z,11.10
2018-11-01T17:39:40.705Z,11.10
2018-11-01T17:42:10.694Z,11.10
2018-11-01T17:44:39.901Z,11.20
2018-11-01T17:47:09.208Z,11.20
2018-11-01T17:49:38.256Z,11.30
2018-11-01T17:52:07.274Z,11.40
2018-11-01T17:54:36.292Z,11.40
2018-11-01T17:57:05.265Z,11.30
2018-11-01T17:59:34.280Z,11.40
2018-11-01T18:02:03.356Z,11.40
2018-11-01T18:04:32.552Z,11.40
2018-11-01T18:07:01.887Z,11.40
2018-11-01T18:09:42.686Z,11.30
2018-11-01T18:12:14.015Z,11.40
2018-11-01T18:14:57.073Z,11.40
2018-11-01T18:17:26.947Z,11.50
2018-11-01T18:19:56.226Z,11.40
2018-11-01T18:22:26.025Z,11.50
2018-11-01T18:25:30.321Z,11.50
2018-11-01T18:37:10.690Z,11.30
2018-11-01T18:39:40.135Z,11.20
2018-11-01T18:42:09.533Z,11.20
2018-11-01T18:44:39.091Z,11.10
2018-11-01T18:47:08.717Z,11.10
2018-11-01T18:49:38.352Z,11.20
2018-11-01T18:52:08.195Z,11.20
2018-11-01T18:54:37.802Z,11.20
2018-11-01T19:00:24.135Z,11.20
2018-11-01T19:02:56.479Z,11.20
2018-11-01T19:05:26.429Z,11.10
2018-11-01T19:07:55.866Z,11.10
2018-11-01T19:20:31.438Z,11.10
2018-11-01T19:23:09.061Z,11.20
2018-11-01T19:25:41.362Z,11.30
2018-11-01T19:28:13.468Z,11.20
2018-11-01T19:30:50.219Z,11.20
2018-11-01T19:33:31.343Z,11.20
2018-11-01T19:36:11.270Z,11.20
2018-11-01T19:38:41.023Z,11.20
2018-11-01T19:41:12.826Z,11.20
2018-11-01T19:43:43.483Z,11.10
2018-11-01T19:46:13.167Z,11.10
2018-11-01T19:48:42.780Z,11.10
2018-11-01T19:51:13.165Z,11.00
2018-11-01T19:53:50.461Z,11.00
2018-11-01T19:56:19.989Z,11.00
2018-11-01T19:58:49.285Z,11.00
2018-11-01T20:01:18.549Z,10.90
2018-11-01T20:03:47.617Z,11.00
2018-11-01T20:06:16.825Z,10.90
2018-11-01T20:08:53.767Z,10.90
2018-11-01T20:11:27.658Z,10.90
2018-11-01T20:14:04.152Z,10.90
2018-11-01T20:16:43.645Z,11.00
2018-11-01T20:19:15.811Z,11.00
2018-11-01T20:21:50.843Z,11.10
2018-11-01T20:24:25.182Z,11.10
2018-11-01T20:26:57.482Z,11.20
2018-11-01T20:29:27.065Z,11.20
2018-11-01T20:31:56.520Z,11.20
2018-11-01T20:34:25.775Z,11.10
2018-11-01T20:37:06.096Z,11.10
2018-11-01T20:39:35.823Z,11.10
2018-11-01T20:42:06.025Z,11.10
2018-11-01T20:44:43.180Z,11.00
2018-11-01T20:47:18.538Z,11.00
2018-11-01T20:49:57.723Z,10.90
2018-11-01T20:52:28.996Z,11.10
2018-11-01T20:55:00.126Z,11.20
2018-11-01T20:57:32.553Z,11.10
2018-11-01T21:00:12.495Z,11.10
2018-11-01T21:03:09.381Z,11.10
2018-11-01T21:05:38.662Z,11.10
2018-11-01T21:08:07.959Z,11.10
2018-11-01T21:10:38.952Z,11.10
2018-11-01T21:13:08.180Z,11.10
2018-11-01T21:15:37.222Z,11.00
2018-11-01T21:18:06.750Z,10.60
2018-11-01T21:20:35.894Z,11.10
2018-11-01T21:23:05.125Z,11.00
2018-11-01T21:25:34.451Z,11.10
2018-11-01T21:28:03.610Z,11.00
2018-11-01T21:30:32.832Z,11.10
2018-11-01T21:33:01.885Z,11.00
2018-11-01T21:35:31.171Z,11.10
2018-11-01T21:38:00.145Z,10.90
2018-11-01T21:40:29.311Z,11.00
2018-11-01T21:42:58.474Z,11.00
2018-11-01T21:45:27.597Z,10.90
2018-11-01T21:47:56.548Z,10.90
2018-11-01T21:50:25.617Z,10.90
2018-11-01T21:52:54.806Z,10.80
2018-11-01T21:55:23.885Z,10.80
2018-11-01T21:57:53.108Z,10.90
2018-11-01T22:00:22.171Z,10.90
2018-11-01T22:02:51.975Z,11.00
2018-11-01T22:05:35.697Z,11.00
2018-11-01T22:08:28.103Z,11.00
2018-11-01T22:23:08.656Z,11.20
2018-11-01T22:25:37.632Z,11.20
2018-11-01T22:28:07.343Z,11.20
2018-11-01T22:30:36.710Z,11.20
2018-11-01T22:33:05.741Z,11.20
2018-11-01T22:35:34.858Z,11.10
2018-11-01T22:38:03.963Z,11.20
2018-11-01T22:40:32.957Z,11.20
2018-11-01T22:43:01.995Z,11.20
2018-11-01T22:45:31.121Z,11.20
2018-11-01T22:48:00.249Z,11.10
2018-11-01T22:50:29.290Z,11.10
2018-11-01T22:52:58.578Z,11.10
2018-11-01T22:55:27.601Z,11.10
2018-11-01T22:57:56.623Z,11.10
2018-11-01T23:00:25.646Z,11.10
2018-11-01T23:02:54.650Z,11.10
2018-11-01T23:05:23.673Z,11.10
2018-11-01T23:07:52.638Z,11.20
2018-11-01T23:10:21.825Z,11.10
2018-11-01T23:12:50.979Z,11.00
2018-11-01T23:15:20.037Z,11.00
2018-11-01T23:17:49.153Z,11.10
2018-11-01T23:20:18.162Z,11.10
2018-11-01T23:22:47.256Z,11.20
2018-11-01T23:25:16.263Z,11.20
2018-11-01T23:27:45.506Z,11.20
2018-11-01T23:30:14.674Z,11.20
2018-11-01T23:32:43.803Z,11.20
2018-11-01T23:35:13.154Z,11.20
2018-11-01T23:37:47.307Z,11.20
2018-11-01T23:40:21.589Z,11.10
2018-11-01T23:42:56.066Z,11.10
2018-11-01T23:45:30.323Z,11.20
2018-11-01T23:48:00.258Z,11.20
2018-11-01T23:51:35.461Z,11.30
2018-11-01T23:54:04.688Z,11.40
2018-11-01T23:56:35.404Z,11.40
2018-11-01T23:59:04.725Z,11.40
